Time;durP1;ratioP1;P1;durP2;ratioP2;P2;SDS_P1;SDS_P2;PMS_P1;PMS_P2;Temp;Humidity;BMP_temperature;BMP_pressure;BME280_temperature;BME280_humidity;BME280_pressure;Samples;Min_cycle;Max_cycle;Signal;HPM_P1;HPM_P2
2023/06/26 00:00:32;;;;;;;14.00;12.80;;;21.10;1.00;;;;;;4963550;28;20574;-76
2023/06/26 00:02:59;;;;;;;13.90;12.80;;;21.10;1.00;;;;;;4964612;28;20510;-76
2023/06/26 00:05:27;;;;;;;13.70;12.50;;;21.00;1.00;;;;;;4965400;28;20504;-76
2023/06/26 00:07:54;;;;;;;14.13;12.93;;;21.00;1.00;;;;;;4964348;28;20551;-75
2023/06/26 00:10:23;;;;;;;13.83;12.63;;;21.00;1.00;;;;;;4966538;28;21065;-77
2023/06/26 00:12:50;;;;;;;13.53;12.47;;;21.00;1.00;;;;;;4965253;28;20505;-76
2023/06/26 00:15:17;;;;;;;13.70;12.53;;;21.00;1.00;;;;;;4964788;28;20473;-75
2023/06/26 00:17:45;;;;;;;15.03;13.63;;;21.10;1.00;;;;;;4961664;28;20468;-76
2023/06/26 00:20:12;;;;;;;13.77;12.67;;;21.00;1.00;;;;;;4967640;28;20550;-76
2023/06/26 00:22:40;;;;;;;15.07;13.73;;;21.00;1.00;;;;;;4965602;28;20539;-78
2023/06/26 00:25:08;;;;;;;14.03;12.83;;;21.00;1.00;;;;;;4965292;28;20471;-76
2023/06/26 00:27:36;;;;;;;14.63;13.53;;;21.00;1.00;;;;;;4963479;28;20835;-76
2023/06/26 00:30:04;;;;;;;15.63;14.17;;;20.90;1.00;;;;;;4964011;28;20573;-77
2023/06/26 00:32:31;;;;;;;14.67;13.37;;;20.90;1.00;;;;;;4965771;28;20551;-73
2023/06/26 00:34:58;;;;;;;15.60;14.43;;;20.80;1.00;;;;;;4967614;28;20457;-75
2023/06/26 00:37:25;;;;;;;14.93;13.63;;;20.80;1.00;;;;;;4965982;28;20448;-75
2023/06/26 00:39:52;;;;;;;15.13;13.83;;;20.80;1.00;;;;;;4966379;28;20565;-76
2023/06/26 00:42:19;;;;;;;15.70;14.40;;;20.70;1.00;;;;;;4968568;28;20532;-76
2023/06/26 00:44:47;;;;;;;15.40;14.10;;;20.80;1.00;;;;;;4970150;28;20497;-76
2023/06/26 00:47:17;;;;;;;14.80;13.70;;;20.80;1.00;;;;;;4966526;28;20458;-76
2023/06/26 00:49:44;;;;;;;15.27;13.97;;;20.70;1.00;;;;;;4962623;28;20484;-76
2023/06/26 00:52:11;;;;;;;15.13;14.07;;;20.70;1.00;;;;;;4964906;28;20560;-76
2023/06/26 00:54:38;;;;;;;15.23;13.93;;;20.70;1.00;;;;;;4965428;28;20534;-75
2023/06/26 00:57:05;;;;;;;15.40;14.10;;;20.70;1.00;;;;;;4963447;28;20945;-77
2023/06/26 00:59:32;;;;;;;14.90;13.70;;;20.70;1.00;;;;;;4962989;28;20933;-76
2023/06/26 01:02:00;;;;;;;14.73;13.43;;;20.70;1.00;;;;;;4990307;23;20467;-73
2023/06/26 01:04:32;;;;;;;16.10;14.90;;;20.70;1.00;;;;;;4935930;28;20481;-72
2023/06/26 01:07:02;;;;;;;15.83;14.53;;;20.70;1.00;;;;;;4947184;28;20454;-72
2023/06/26 01:09:30;;;;;;;16.20;14.70;;;20.70;1.00;;;;;;4941846;28;20478;-72
2023/06/26 01:11:57;;;;;;;16.07;14.87;;;20.70;1.00;;;;;;4942782;28;20528;-73
2023/06/26 01:14:25;;;;;;;16.70;15.40;;;20.70;1.00;;;;;;4943500;28;20494;-72
2023/06/26 01:16:52;;;;;;;16.43;15.10;;;20.70;1.00;;;;;;4941194;28;20533;-73
2023/06/26 01:19:25;;;;;;;16.27;14.97;;;20.70;1.00;;;;;;4944752;28;20505;-72
2023/06/26 01:21:59;;;;;;;16.53;15.17;;;20.70;1.00;;;;;;4943380;28;20456;-72
2023/06/26 01:24:32;;;;;;;15.70;14.50;;;20.70;1.00;;;;;;4944417;28;20467;-72
2023/06/26 01:27:02;;;;;;;16.20;15.03;;;20.70;1.00;;;;;;4944278;28;20473;-72
2023/06/26 01:29:32;;;;;;;16.67;15.27;;;20.60;1.00;;;;;;4942650;28;20472;-72
2023/06/26 01:32:00;;;;;;;16.83;15.37;;;20.60;1.00;;;;;;4945280;28;20467;-72
2023/06/26 01:34:28;;;;;;;17.10;15.60;;;20.60;1.00;;;;;;4942386;28;20528;-72
2023/06/26 01:36:55;;;;;;;15.13;13.97;;;20.60;1.00;;;;;;4943745;28;20432;-73
2023/06/26 01:39:22;;;;;;;16.00;14.80;;;20.60;1.00;;;;;;4941603;28;20455;-73
2023/06/26 01:41:49;;;;;;;18.10;16.70;;;20.60;1.00;;;;;;4942364;28;20463;-73
2023/06/26 01:44:27;;;;;;;17.20;15.90;;;20.60;1.00;;;;;;4944114;28;20462;-73
2023/06/26 01:47:02;;;;;;;15.93;14.57;;;20.60;1.00;;;;;;4941345;28;20459;-73
2023/06/26 01:49:44;;;;;;;17.10;15.70;;;20.50;1.00;;;;;;4942538;28;20496;-73
2023/06/26 01:52:20;;;;;;;17.10;15.70;;;20.50;1.00;;;;;;4941236;28;20916;-72
2023/06/26 01:54:54;;;;;;;17.03;15.63;;;20.40;1.00;;;;;;4943255;28;20476;-73
2023/06/26 01:57:23;;;;;;;16.50;15.10;;;20.40;1.00;;;;;;4943417;28;20528;-73
2023/06/26 01:59:53;;;;;;;18.60;17.00;;;20.30;1.00;;;;;;4944340;28;20504;-72
2023/06/26 02:02:20;;;;;;;17.57;16.27;;;20.30;1.00;;;;;;4941853;28;20470;-73
2023/06/26 02:04:48;;;;;;;16.87;15.47;;;20.30;1.00;;;;;;4941299;28;20701;-72
2023/06/26 02:07:16;;;;;;;16.23;15.03;;;20.30;1.00;;;;;;4941244;28;20475;-73
2023/06/26 02:09:43;;;;;;;17.90;16.30;;;20.30;1.00;;;;;;4940943;28;20482;-74
2023/06/26 02:12:10;;;;;;;17.40;16.00;;;20.20;1.00;;;;;;4943871;28;20453;-74
2023/06/26 02:14:37;;;;;;;18.13;16.80;;;20.30;1.00;;;;;;4931263;28;20469;-74
2023/06/26 02:17:08;;;;;;;18.07;16.40;;;20.30;1.00;;;;;;4944166;28;20469;-74
2023/06/26 02:19:35;;;;;;;19.50;17.87;;;20.20;1.00;;;;;;4941705;28;20672;-74
2023/06/26 02:22:03;;;;;;;18.90;17.40;;;20.20;1.00;;;;;;4943675;28;20473;-74
2023/06/26 02:24:30;;;;;;;19.30;17.70;;;20.20;1.00;;;;;;4945085;28;20465;-74
2023/06/26 02:26:58;;;;;;;18.57;17.07;;;20.20;1.00;;;;;;4943630;28;20843;-75
2023/06/26 02:29:25;;;;;;;19.37;17.77;;;20.20;1.00;;;;;;4943522;28;20498;-74
2023/06/26 02:31:52;;;;;;;19.00;17.50;;;20.20;1.00;;;;;;4942463;28;20539;-74
2023/06/26 02:34:20;;;;;;;18.47;16.97;;;20.20;1.00;;;;;;4946366;28;20597;-74
2023/06/26 02:36:47;;;;;;;19.27;17.77;;;20.20;1.00;;;;;;4939900;28;20477;-74
2023/06/26 02:39:15;;;;;;;18.17;16.60;;;20.20;1.00;;;;;;4946492;28;20484;-75
2023/06/26 02:41:43;;;;;;;19.70;17.93;;;20.10;1.00;;;;;;4939204;28;20466;-74
2023/06/26 02:44:11;;;;;;;20.00;18.30;;;20.10;1.00;;;;;;4941842;28;20466;-74
2023/06/26 02:46:38;;;;;;;20.93;19.40;;;20.10;1.00;;;;;;4942444;28;20473;-73
2023/06/26 02:49:05;;;;;;;21.50;19.67;;;20.10;1.00;;;;;;4945255;28;20532;-73
2023/06/26 02:51:34;;;;;;;21.77;19.90;;;20.10;1.00;;;;;;4942757;28;20495;-74
2023/06/26 02:54:03;;;;;;;20.50;18.80;;;20.00;1.00;;;;;;4944668;28;20477;-74
2023/06/26 02:56:30;;;;;;;22.97;21.13;;;20.00;1.00;;;;;;4945511;28;20473;-74
2023/06/26 02:58:59;;;;;;;22.10;20.30;;;19.90;1.00;;;;;;4944596;28;20560;-74
2023/06/26 03:01:26;;;;;;;21.00;19.30;;;19.90;1.00;;;;;;4943787;28;20514;-74
2023/06/26 03:03:53;;;;;;;21.70;19.90;;;19.90;1.00;;;;;;4943409;28;20471;-73
2023/06/26 03:06:20;;;;;;;21.93;20.07;;;20.00;1.00;;;;;;4943945;28;20509;-74
2023/06/26 03:08:49;;;;;;;20.10;18.47;;;19.90;1.00;;;;;;4943548;28;20441;-74
2023/06/26 03:11:16;;;;;;;20.73;19.20;;;20.00;1.00;;;;;;4945474;28;20457;-73
2023/06/26 03:13:43;;;;;;;22.00;20.20;;;20.00;1.00;;;;;;4943487;28;20634;-74
2023/06/26 03:16:10;;;;;;;20.90;19.30;;;19.90;1.00;;;;;;4942104;28;20467;-74
2023/06/26 03:18:37;;;;;;;22.27;20.57;;;19.90;1.00;;;;;;4942058;28;20489;-75
2023/06/26 03:21:04;;;;;;;22.73;20.87;;;19.90;1.00;;;;;;4944679;28;20466;-75
2023/06/26 03:23:31;;;;;;;21.67;19.97;;;19.80;1.00;;;;;;4944896;28;20516;-75
2023/06/26 03:26:00;;;;;;;22.30;20.50;;;19.80;1.00;;;;;;4943496;28;20515;-75
2023/06/26 03:28:27;;;;;;;21.47;19.83;;;19.70;1.00;;;;;;4944639;28;20488;-74
2023/06/26 03:30:55;;;;;;;22.33;20.53;;;19.70;1.00;;;;;;4945053;28;20493;-75
2023/06/26 03:33:22;;;;;;;26.63;24.43;;;19.80;1.00;;;;;;4946164;28;20565;-75
2023/06/26 03:35:49;;;;;;;24.43;22.43;;;19.80;1.00;;;;;;4944397;28;20969;-75
2023/06/26 03:38:16;;;;;;;23.77;21.67;;;19.80;1.00;;;;;;4946811;28;20484;-74
2023/06/26 03:40:43;;;;;;;25.47;23.30;;;19.70;1.00;;;;;;4941311;28;20471;-74
2023/06/26 03:43:12;;;;;;;23.83;21.83;;;19.80;1.00;;;;;;4945194;28;20466;-75
2023/06/26 03:45:39;;;;;;;24.70;22.63;;;19.80;1.00;;;;;;4940986;28;20565;-75
2023/06/26 03:48:07;;;;;;;23.17;21.47;;;19.70;1.00;;;;;;4943497;28;20485;-74
2023/06/26 03:50:35;;;;;;;23.97;21.87;;;19.70;1.00;;;;;;4942767;28;20545;-74
2023/06/26 03:53:02;;;;;;;24.17;22.27;;;19.80;1.00;;;;;;4943646;28;20519;-74
2023/06/26 03:55:29;;;;;;;25.97;23.77;;;19.70;1.00;;;;;;4942863;28;20477;-74
2023/06/26 03:57:57;;;;;;;24.83;22.73;;;19.80;1.00;;;;;;4943864;28;20484;-74
2023/06/26 04:00:25;;;;;;;24.77;22.60;;;19.80;1.00;;;;;;4941483;28;20483;-74
2023/06/26 04:02:52;;;;;;;22.37;20.67;;;19.90;1.00;;;;;;4940540;28;21216;-74
2023/06/26 04:05:19;;;;;;;25.63;23.63;;;19.90;1.00;;;;;;4937539;28;20556;-74
2023/06/26 04:07:47;;;;;;;25.30;23.17;;;20.00;1.00;;;;;;4942524;28;20832;-74
2023/06/26 04:10:14;;;;;;;24.10;22.20;;;20.10;1.00;;;;;;4941184;28;20465;-74
2023/06/26 04:12:41;;;;;;;25.40;23.33;;;20.30;1.00;;;;;;4927302;28;20492;-74
2023/06/26 04:15:09;;;;;;;24.23;22.27;;;20.40;1.00;;;;;;4937284;28;22219;-74
2023/06/26 04:17:37;;;;;;;24.20;22.10;;;20.50;1.00;;;;;;4942179;28;20493;-74
2023/06/26 04:20:07;;;;;;;25.37;23.13;;;20.60;1.00;;;;;;4943417;28;21811;-74
2023/06/26 04:22:35;;;;;;;26.33;24.30;;;20.70;1.00;;;;;;4942256;28;20534;-74
2023/06/26 04:25:04;;;;;;;25.47;23.33;;;20.80;1.00;;;;;;4943779;28;20471;-74
2023/06/26 04:27:31;;;;;;;25.47;23.27;;;20.90;1.00;;;;;;4944450;28;21401;-75
2023/06/26 04:29:58;;;;;;;25.43;23.43;;;21.10;1.00;;;;;;4944028;28;20553;-77
2023/06/26 04:32:25;;;;;;;25.50;23.50;;;21.10;1.00;;;;;;4930802;28;20464;-78
2023/06/26 04:34:54;;;;;;;24.80;22.80;;;21.20;1.00;;;;;;4941969;28;20557;-78
2023/06/26 04:37:21;;;;;;;24.73;23.03;;;21.30;1.00;;;;;;4944870;28;20477;-79
2023/06/26 04:39:48;;;;;;;25.33;23.43;;;21.30;1.00;;;;;;4946287;28;20526;-78
2023/06/26 04:42:15;;;;;;;23.73;21.83;;;21.40;1.00;;;;;;4945181;28;20487;-78
2023/06/26 04:44:42;;;;;;;24.47;22.40;;;21.40;1.00;;;;;;4945731;28;20468;-77
2023/06/26 04:47:09;;;;;;;24.97;23.07;;;21.40;1.00;;;;;;4946872;28;20478;-77
2023/06/26 04:49:36;;;;;;;25.40;23.07;;;21.40;1.00;;;;;;4950285;28;20469;-76
2023/06/26 04:52:05;;;;;;;24.50;22.67;;;21.50;1.00;;;;;;4944997;28;20681;-76
2023/06/26 04:54:32;;;;;;;23.93;21.83;;;21.60;1.00;;;;;;4942982;28;20534;-75
2023/06/26 04:56:59;;;;;;;23.03;21.30;;;21.70;1.00;;;;;;4947259;28;20491;-77
2023/06/26 04:59:26;;;;;;;31.20;28.90;;;21.70;1.00;;;;;;4948440;28;20499;-77
2023/06/26 05:01:54;;;;;;;24.20;22.20;;;21.80;1.00;;;;;;4945138;28;20484;-77
2023/06/26 05:04:22;;;;;;;31.10;28.70;;;21.80;1.00;;;;;;4950307;28;20423;-76
2023/06/26 05:06:49;;;;;;;24.13;21.97;;;21.90;1.00;;;;;;4944519;28;20866;-77
2023/06/26 05:09:19;;;;;;;21.00;19.30;;;21.80;1.00;;;;;;4946033;28;20492;-79
2023/06/26 05:11:47;;;;;;;30.87;28.47;;;21.90;1.00;;;;;;4942225;28;20491;-79
2023/06/26 05:14:14;;;;;;;23.17;21.27;;;22.10;1.00;;;;;;4945147;28;20429;-77
2023/06/26 05:16:41;;;;;;;22.67;20.90;;;22.20;1.00;;;;;;4941221;28;21784;-77
2023/06/26 05:19:08;;;;;;;22.13;20.43;;;22.40;1.00;;;;;;4943452;28;20435;-78
2023/06/26 05:21:36;;;;;;;21.60;19.90;;;22.50;1.00;;;;;;4946309;28;20459;-78
2023/06/26 05:24:04;;;;;;;23.77;21.60;;;22.50;1.00;;;;;;4949931;28;20525;-79
2023/06/26 05:26:33;;;;;;;23.30;21.40;;;22.60;1.00;;;;;;4945796;28;20536;-75
2023/06/26 05:29:01;;;;;;;21.00;19.50;;;22.80;1.00;;;;;;4946404;28;20456;-78
2023/06/26 05:31:28;;;;;;;21.70;19.97;;;22.90;1.00;;;;;;4946197;28;20467;-72
2023/06/26 05:33:58;;;;;;;22.20;20.50;;;23.00;1.00;;;;;;4943816;28;20472;-73
2023/06/26 05:36:28;;;;;;;20.17;18.57;;;23.10;1.00;;;;;;4942753;28;20537;-73
2023/06/26 05:38:57;;;;;;;20.00;18.40;;;23.20;1.00;;;;;;4946711;28;20843;-73
2023/06/26 05:41:24;;;;;;;22.07;20.43;;;23.30;1.00;;;;;;4945082;28;20487;-72
2023/06/26 05:43:54;;;;;;;21.20;19.50;;;23.30;1.00;;;;;;4946553;28;20524;-73
2023/06/26 05:46:21;;;;;;;24.27;21.77;;;23.40;1.00;;;;;;4946973;28;20491;-71
2023/06/26 05:48:48;;;;;;;21.70;19.83;;;23.40;1.00;;;;;;4949344;28;21369;-72
2023/06/26 05:51:15;;;;;;;21.47;19.77;;;23.30;1.00;;;;;;4946662;28;20552;-72
2023/06/26 05:53:43;;;;;;;25.90;20.80;;;23.20;1.00;;;;;;4949406;28;20475;-72
2023/06/26 05:56:11;;;;;;;21.63;19.57;;;23.20;1.00;;;;;;4945281;28;20450;-72
2023/06/26 05:58:39;;;;;;;19.67;18.10;;;23.20;1.00;;;;;;4940248;28;20574;-70
2023/06/26 06:01:07;;;;;;;19.40;17.80;;;23.30;1.00;;;;;;4946829;28;20466;-72
2023/06/26 06:03:34;;;;;;;19.03;17.63;;;23.30;1.00;;;;;;4944361;28;20454;-70
2023/06/26 06:06:01;;;;;;;20.80;18.93;;;23.30;1.00;;;;;;4946055;28;20543;-71
2023/06/26 06:08:28;;;;;;;20.60;19.10;;;23.30;1.00;;;;;;4945516;28;20509;-71
2023/06/26 06:10:55;;;;;;;20.63;18.93;;;23.40;1.00;;;;;;4945629;28;20468;-71
2023/06/26 06:13:22;;;;;;;18.27;16.97;;;23.40;1.00;;;;;;4942502;28;20547;-73
2023/06/26 06:15:49;;;;;;;17.80;16.20;;;23.50;1.00;;;;;;4940710;28;20570;-69
2023/06/26 06:18:17;;;;;;;18.00;16.60;;;23.70;1.00;;;;;;4947319;28;20487;-72
2023/06/26 06:20:44;;;;;;;17.43;16.17;;;23.70;1.00;;;;;;4945202;28;21005;-71
2023/06/26 06:23:12;;;;;;;17.00;15.50;;;23.70;1.00;;;;;;4942070;28;20954;-72
2023/06/26 06:25:39;;;;;;;19.00;17.07;;;23.90;1.00;;;;;;4939437;28;20928;-74
2023/06/26 06:28:07;;;;;;;18.83;17.33;;;24.10;1.00;;;;;;4944940;28;20987;-75
2023/06/26 06:30:33;;;;;;;18.37;16.83;;;24.20;1.00;;;;;;4944953;28;20625;-73
2023/06/26 06:33:01;;;;;;;17.53;14.47;;;24.30;1.00;;;;;;4942329;28;20483;-72
2023/06/26 06:35:29;;;;;;;15.53;14.33;;;24.30;1.00;;;;;;4948717;28;21163;-71
2023/06/26 06:37:56;;;;;;;17.40;15.80;;;24.40;1.00;;;;;;4943704;28;20457;-73
2023/06/26 06:40:25;;;;;;;16.47;14.77;;;24.50;1.00;;;;;;4946591;28;20607;-70
2023/06/26 06:42:52;;;;;;;15.40;14.10;;;24.50;1.00;;;;;;4941488;28;20519;-72
2023/06/26 06:45:19;;;;;;;14.67;13.33;;;24.50;1.00;;;;;;4947998;28;20939;-73
2023/06/26 06:47:46;;;;;;;14.57;13.37;;;24.70;1.00;;;;;;4940724;28;20488;-71
2023/06/26 06:50:15;;;;;;;15.20;13.90;;;24.80;1.00;;;;;;4945061;28;20552;-71
2023/06/26 06:52:44;;;;;;;13.80;12.70;;;24.80;1.00;;;;;;4944562;28;20458;-72
2023/06/26 06:55:11;;;;;;;14.33;13.30;;;24.90;1.00;;;;;;4947925;28;20472;-73
2023/06/26 06:57:40;;;;;;;13.70;12.60;;;25.10;1.00;;;;;;4942930;28;20469;-71
2023/06/26 07:00:09;;;;;;;19.57;14.23;;;25.20;1.00;;;;;;4938660;28;21080;-71
2023/06/26 07:02:36;;;;;;;13.60;12.50;;;25.30;1.00;;;;;;4942333;28;20551;-72
2023/06/26 07:05:04;;;;;;;13.80;12.70;;;25.30;1.00;;;;;;4943404;28;20603;-72
2023/06/26 07:07:32;;;;;;;13.27;12.17;;;25.40;1.00;;;;;;4943162;28;20556;-75
2023/06/26 07:10:02;;;;;;;13.10;12.00;;;25.40;1.00;;;;;;4944465;28;20843;-72
2023/06/26 07:12:29;;;;;;;12.43;11.60;;;25.40;1.00;;;;;;4945634;28;20457;-73
2023/06/26 07:14:57;;;;;;;12.43;11.20;;;25.50;1.00;;;;;;4944593;28;20583;-73
2023/06/26 07:17:24;;;;;;;12.20;11.20;;;25.60;1.00;;;;;;4944461;28;20471;-73
2023/06/26 07:19:51;;;;;;;11.77;10.97;;;25.70;1.00;;;;;;4944651;28;20468;-73
2023/06/26 07:22:20;;;;;;;12.20;11.17;;;25.50;1.00;;;;;;4945784;28;20458;-72
2023/06/26 07:24:47;;;;;;;12.80;11.57;;;25.60;1.00;;;;;;4943589;28;20553;-70
2023/06/26 07:27:16;;;;;;;12.30;11.17;;;25.70;1.00;;;;;;4948341;28;20988;-71
2023/06/26 07:29:43;;;;;;;10.90;10.10;;;25.90;1.00;;;;;;4943601;28;20465;-72
2023/06/26 07:32:10;;;;;;;11.50;10.60;;;26.00;1.00;;;;;;4941555;28;20571;-72
2023/06/26 07:34:37;;;;;;;11.17;10.27;;;26.10;1.00;;;;;;4943268;28;20533;-72
2023/06/26 07:37:05;;;;;;;10.80;9.93;;;26.20;1.00;;;;;;4941561;28;20468;-71
2023/06/26 07:39:33;;;;;;;11.40;10.53;;;26.30;1.00;;;;;;4942952;28;20502;-73
2023/06/26 07:42:01;;;;;;;12.00;11.00;;;26.40;1.00;;;;;;4941994;28;20477;-71
2023/06/26 07:44:29;;;;;;;11.50;10.50;;;26.40;1.00;;;;;;4941481;28;20521;-71
2023/06/26 07:46:56;;;;;;;10.97;10.07;;;26.50;1.00;;;;;;4942827;28;20543;-73
2023/06/26 07:49:23;;;;;;;10.63;9.63;;;26.80;1.00;;;;;;4943772;28;20506;-71
2023/06/26 07:51:50;;;;;;;9.27;8.60;;;26.80;1.00;;;;;;4941802;28;21011;-72
2023/06/26 07:54:17;;;;;;;9.10;8.40;;;26.90;1.00;;;;;;4942233;28;20504;-72
2023/06/26 07:56:55;;;;;;;8.10;7.40;;;27.00;1.00;;;;;;4944857;28;20543;-71
2023/06/26 07:59:23;;;;;;;9.67;8.87;;;27.10;1.00;;;;;;4940729;28;20462;-73
2023/06/26 08:01:52;;;;;;;9.20;8.50;;;27.20;1.00;;;;;;4944280;28;21277;-71
2023/06/26 08:04:20;;;;;;;9.30;8.50;;;27.20;1.00;;;;;;4931594;28;20581;-71
2023/06/26 08:06:49;;;;;;;8.73;8.13;;;27.30;1.00;;;;;;4944945;28;20475;-71
2023/06/26 08:09:16;;;;;;;10.63;9.73;;;27.40;1.00;;;;;;4939487;28;20455;-70
2023/06/26 08:11:44;;;;;;;9.00;8.30;;;27.50;1.00;;;;;;4927589;28;20491;-71
2023/06/26 08:14:11;;;;;;;8.43;7.10;;;27.60;1.00;;;;;;4946446;28;20474;-71
2023/06/26 08:16:38;;;;;;;7.53;6.80;;;27.70;1.00;;;;;;4945952;28;21593;-72
2023/06/26 08:19:07;;;;;;;7.93;6.53;;;27.80;1.00;;;;;;4947200;28;20542;-72
2023/06/26 08:21:34;;;;;;;11.50;7.53;;;28.00;1.00;;;;;;4948778;28;20519;-73
2023/06/26 08:24:01;;;;;;;8.20;7.60;;;28.20;1.00;;;;;;4942310;28;20525;-70
2023/06/26 08:26:28;;;;;;;7.40;6.80;;;28.30;1.00;;;;;;4945215;28;20249;-71
2023/06/26 08:28:55;;;;;;;7.97;7.17;;;28.30;1.00;;;;;;4948755;28;20978;-71
2023/06/26 08:31:22;;;;;;;6.70;6.17;;;28.40;1.00;;;;;;4947301;28;20495;-71
2023/06/26 08:33:49;;;;;;;6.97;6.37;;;28.50;1.00;;;;;;4951140;28;20482;-71
2023/06/26 08:36:18;;;;;;;7.27;6.67;;;28.50;1.00;;;;;;4948532;28;20518;-71
2023/06/26 08:38:45;;;;;;;7.60;6.90;;;28.60;1.00;;;;;;4943542;28;20478;-73
2023/06/26 08:41:12;;;;;;;7.93;7.30;;;28.60;1.00;;;;;;4951637;28;20472;-73
2023/06/26 08:43:39;;;;;;;8.20;7.40;;;28.50;1.00;;;;;;4947590;28;20471;-70
2023/06/26 08:46:06;;;;;;;6.70;6.20;;;28.60;1.00;;;;;;4944608;28;20514;-74
2023/06/26 08:48:36;;;;;;;5.87;5.47;;;28.70;1.00;;;;;;4940081;28;20478;-71
2023/06/26 08:51:09;;;;;;;6.13;5.50;;;28.70;1.00;;;;;;4948170;28;20510;-72
2023/06/26 08:53:57;;;;;;;5.73;5.27;;;28.90;1.00;;;;;;4949067;28;20484;-71
2023/06/26 08:56:26;;;;;;;5.20;4.80;;;29.00;1.00;;;;;;4953492;28;20928;-70
2023/06/26 08:58:53;;;;;;;7.53;6.37;;;29.10;1.00;;;;;;4950965;28;20967;-70
2023/06/26 09:01:23;;;;;;;6.73;6.23;;;29.20;1.00;;;;;;4944663;28;21015;-71
2023/06/26 09:03:50;;;;;;;7.00;6.50;;;29.30;1.00;;;;;;4949138;28;20484;-71
2023/06/26 09:06:18;;;;;;;6.27;5.77;;;29.40;1.00;;;;;;4947365;28;20464;-71
2023/06/26 09:08:47;;;;;;;6.87;6.37;;;29.60;1.00;;;;;;4945358;28;20475;-73
2023/06/26 09:11:14;;;;;;;6.03;5.53;;;29.60;1.00;;;;;;4948190;28;20560;-72
2023/06/26 09:13:41;;;;;;;6.97;6.27;;;29.60;1.00;;;;;;4944527;28;20487;-72
2023/06/26 09:16:09;;;;;;;5.77;5.37;;;29.80;1.00;;;;;;4945803;28;20484;-72
2023/06/26 09:18:36;;;;;;;7.20;6.37;;;29.80;1.00;;;;;;4946647;28;20547;-76
2023/06/26 09:21:09;;;;;;;6.00;5.50;;;30.10;1.00;;;;;;4948689;28;20989;-75
2023/06/26 09:23:36;;;;;;;6.00;5.50;;;30.20;1.00;;;;;;4946750;28;21000;-74
2023/06/26 09:26:06;;;;;;;5.67;5.17;;;30.30;1.00;;;;;;4943623;28;20475;-74
2023/06/26 09:28:34;;;;;;;5.50;5.10;;;30.50;1.00;;;;;;4948210;28;20571;-74
2023/06/26 09:31:04;;;;;;;6.00;5.40;;;30.50;1.00;;;;;;4946016;28;20457;-75
2023/06/26 09:33:36;;;;;;;5.40;4.90;;;30.60;1.00;;;;;;4947344;28;20471;-73
2023/06/26 09:36:07;;;;;;;5.83;5.43;;;30.60;1.00;;;;;;4946168;28;20469;-72
2023/06/26 09:38:35;;;;;;;5.80;5.30;;;30.40;1.00;;;;;;4943936;28;20632;-74
2023/06/26 09:41:02;;;;;;;6.00;5.60;;;30.60;1.00;;;;;;4946275;28;21009;-74
2023/06/26 09:43:31;;;;;;;6.00;5.50;;;31.30;1.00;;;;;;4944226;28;20516;-73
2023/06/26 09:45:59;;;;;;;6.00;5.50;;;32.60;1.00;;;;;;4948354;28;20470;-74
2023/06/26 09:48:26;;;;;;;5.63;5.20;;;34.30;1.00;;;;;;4946474;28;20469;-73
2023/06/26 09:50:54;;;;;;;5.67;5.27;;;35.50;1.00;;;;;;4941358;28;20943;-73
2023/06/26 09:53:22;;;;;;;5.93;5.43;;;36.20;1.00;;;;;;4944524;28;20479;-75
2023/06/26 09:55:49;;;;;;;5.80;5.40;;;37.00;1.00;;;;;;4944425;28;20528;-75
2023/06/26 09:58:17;;;;;;;6.13;5.67;;;37.70;1.00;;;;;;4940246;28;20556;-73
2023/06/26 10:00:46;;;;;;;6.20;5.80;;;38.30;1.00;;;;;;4941859;28;20464;-74
2023/06/26 10:03:13;;;;;;;5.17;4.87;;;38.40;1.00;;;;;;4945659;28;20472;-72
2023/06/26 10:05:42;;;;;;;5.60;5.07;;;38.80;1.00;;;;;;4941238;28;21045;-73
2023/06/26 10:08:10;;;;;;;5.30;4.90;;;39.30;1.00;;;;;;4939309;28;20590;-72
2023/06/26 10:10:39;;;;;;;6.50;5.90;;;39.60;1.00;;;;;;4935634;28;20528;-73
2023/06/26 10:13:16;;;;;;;6.23;5.73;;;40.00;1.00;;;;;;4936007;28;20492;-74
2023/06/26 10:15:47;;;;;;;7.20;6.60;;;40.20;1.00;;;;;;4947236;28;20524;-74
2023/06/26 10:18:16;;;;;;;6.20;5.80;;;40.50;1.00;;;;;;4944598;28;22121;-74
2023/06/26 10:20:46;;;;;;;5.87;5.37;;;41.00;1.00;;;;;;4943211;28;21710;-74
2023/06/26 10:23:14;;;;;;;6.07;5.67;;;40.20;1.00;;;;;;4942849;28;20604;-74
2023/06/26 10:25:45;;;;;;;5.70;5.40;;;40.70;1.00;;;;;;4945586;28;20561;-74
2023/06/26 10:28:13;;;;;;;5.27;4.80;;;40.90;1.00;;;;;;4944220;28;21137;-73
2023/06/26 10:30:43;;;;;;;5.67;5.23;;;40.70;1.00;;;;;;4941102;28;21256;-73
2023/06/26 10:33:12;;;;;;;6.07;5.57;;;41.10;1.00;;;;;;4943911;28;20474;-75
2023/06/26 10:35:43;;;;;;;6.90;6.40;;;41.10;1.00;;;;;;4940203;28;20543;-74
2023/06/26 10:38:10;;;;;;;6.43;5.93;;;41.60;1.00;;;;;;4938085;28;20607;-74
2023/06/26 10:40:45;;;;;;;6.10;5.60;;;41.90;1.00;;;;;;4939563;28;20567;-73
2023/06/26 10:43:14;;;;;;;6.07;5.57;;;42.20;1.00;;;;;;4944606;28;20880;-73
2023/06/26 10:45:46;;;;;;;5.10;4.80;;;42.40;1.00;;;;;;4948283;28;20524;-73
2023/06/26 10:48:16;;;;;;;5.30;4.77;;;42.30;1.00;;;;;;4941213;28;20820;-73
2023/06/26 10:50:44;;;;;;;5.70;5.20;;;42.60;1.00;;;;;;4943209;28;20588;-74
2023/06/26 10:53:19;;;;;;;5.63;5.23;;;42.90;1.00;;;;;;4936887;28;20540;-73
2023/06/26 10:55:51;;;;;;;5.37;4.97;;;42.90;1.00;;;;;;4938545;28;20526;-73
2023/06/26 10:58:40;;;;;;;5.47;5.07;;;42.80;1.00;;;;;;4937333;28;20469;-73
2023/06/26 11:01:24;;;;;;;5.40;5.00;;;43.30;1.00;;;;;;4937078;28;20456;-74
2023/06/26 11:04:06;;;;;;;8.57;5.13;;;43.10;1.00;;;;;;4936557;28;20571;-73
2023/06/26 11:06:35;;;;;;;4.70;4.30;;;42.10;1.00;;;;;;4934495;28;21035;-73
2023/06/26 11:09:08;;;;;;;5.07;4.77;;;42.20;1.00;;;;;;4936540;28;20469;-73
2023/06/26 11:12:04;;;;;;;4.90;4.60;;;42.80;1.00;;;;;;4936512;28;20476;-74
2023/06/26 11:14:34;;;;;;;5.13;4.73;;;43.40;1.00;;;;;;4911153;28;20476;-74
2023/06/26 11:17:05;;;;;;;4.97;4.50;;;44.00;1.00;;;;;;4910756;28;20460;-74
2023/06/26 11:19:34;;;;;;;5.57;5.17;;;44.70;1.00;;;;;;4944888;28;20532;-74
2023/06/26 11:22:04;;;;;;;6.00;5.60;;;44.50;1.00;;;;;;4945176;28;20502;-73
2023/06/26 11:24:32;;;;;;;5.90;5.50;;;43.90;1.00;;;;;;4939815;28;20559;-73
2023/06/26 11:27:04;;;;;;;5.23;4.67;;;43.60;1.00;;;;;;4938125;28;20532;-74
2023/06/26 11:29:33;;;;;;;5.07;4.70;;;43.60;1.00;;;;;;4937994;28;20522;-74
2023/06/26 11:32:06;;;;;;;5.57;5.17;;;44.00;1.00;;;;;;4943776;28;21045;-75
2023/06/26 11:34:37;;;;;;;5.50;5.10;;;43.80;1.00;;;;;;4944087;28;20499;-76
2023/06/26 11:37:04;;;;;;;5.57;5.20;;;43.30;1.00;;;;;;4944542;28;20472;-75
2023/06/26 11:39:31;;;;;;;6.17;5.67;;;43.30;1.00;;;;;;4940369;28;20468;-76
2023/06/26 11:42:00;;;;;;;5.70;5.23;;;42.90;1.00;;;;;;4940471;28;20478;-75
2023/06/26 11:44:30;;;;;;;6.00;5.60;;;42.40;1.00;;;;;;4948455;28;20476;-73
2023/06/26 11:46:58;;;;;;;5.77;5.27;;;42.60;1.00;;;;;;4947430;28;20881;-73
2023/06/26 11:49:26;;;;;;;5.80;5.30;;;43.20;1.00;;;;;;4948118;28;21254;-74
2023/06/26 11:51:58;;;;;;;6.03;5.53;;;43.60;1.00;;;;;;4946795;28;20481;-75
2023/06/26 11:54:27;;;;;;;6.83;6.33;;;43.90;1.00;;;;;;4945650;28;20582;-77
2023/06/26 11:56:57;;;;;;;5.67;5.37;;;44.50;1.00;;;;;;4941532;28;20926;-77
2023/06/26 11:59:36;;;;;;;6.10;5.60;;;44.60;1.00;;;;;;4943720;28;20465;-77
2023/06/26 12:02:07;;;;;;;5.33;5.03;;;44.80;1.00;;;;;;4945257;28;20448;-77
2023/06/26 12:04:36;;;;;;;5.57;5.17;;;43.90;1.00;;;;;;4942510;28;20480;-77
2023/06/26 12:07:08;;;;;;;5.70;5.30;;;44.30;1.00;;;;;;4939755;28;20496;-78
2023/06/26 12:09:40;;;;;;;5.30;4.90;;;44.50;1.00;;;;;;4940347;28;20466;-77
2023/06/26 12:12:08;;;;;;;5.80;5.30;;;43.80;1.00;;;;;;4935656;28;20540;-75
2023/06/26 12:14:36;;;;;;;6.10;5.70;;;42.70;1.00;;;;;;4942926;28;22165;-76
2023/06/26 12:17:10;;;;;;;5.50;4.97;;;42.20;1.00;;;;;;4946004;28;20452;-77
2023/06/26 12:19:39;;;;;;;5.73;5.30;;;42.60;1.00;;;;;;4940876;28;20445;-78
2023/06/26 12:22:11;;;;;;;6.70;6.20;;;42.00;1.00;;;;;;4944518;28;20545;-76
2023/06/26 12:24:39;;;;;;;5.90;5.50;;;42.30;1.00;;;;;;4944996;28;20905;-70
2023/06/26 12:27:10;;;;;;;6.77;5.33;;;42.50;1.00;;;;;;4930065;28;20488;-72
2023/06/26 12:29:39;;;;;;;5.80;5.40;;;41.40;1.00;;;;;;4940589;28;20480;-72
2023/06/26 12:32:10;;;;;;;6.30;5.80;;;40.30;1.00;;;;;;4941876;28;20501;-74
2023/06/26 12:34:39;;;;;;;6.27;5.83;;;38.90;1.00;;;;;;4924018;28;20523;-74
2023/06/26 12:37:08;;;;;;;7.00;6.30;;;38.70;1.00;;;;;;4943872;28;20471;-75
2023/06/26 12:39:48;;;;;;;6.20;5.67;;;39.90;1.00;;;;;;4943894;28;20472;-75
2023/06/26 12:42:19;;;;;;;6.50;6.00;;;41.70;1.00;;;;;;4932777;28;20562;-75
2023/06/26 12:44:46;;;;;;;5.63;5.07;;;43.00;1.00;;;;;;4944289;28;20496;-75
2023/06/26 12:47:14;;;;;;;6.53;6.10;;;43.30;1.00;;;;;;4942274;28;20480;-74
2023/06/26 12:49:42;;;;;;;6.83;6.20;;;43.20;1.00;;;;;;4941698;28;20507;-74
2023/06/26 12:52:11;;;;;;;6.73;6.23;;;42.00;1.00;;;;;;4946462;28;20465;-74